Time;durP1;ratioP1;P1;durP2;ratioP2;P2;SDS_P1;SDS_P2;PMS_P1;PMS_P2;Temp;Humidity;BMP_temperature;BMP_pressure;BME280_temperature;BME280_humidity;BME280_pressure;Samples;Min_cycle;Max_cycle;Signal;HPM_P1;HPM_P2
2022/04/19 00:01:10;;;;;;;4.07;2.70;;;;;;;8.82;80.07;94970.75;5096699;28;20192;-62
2022/04/19 00:03:36;;;;;;;4.90;2.43;;;;;;;8.78;79.13;94972.72;5097062;28;20229;-62
2022/04/19 00:06:02;;;;;;;3.70;2.50;;;;;;;8.77;79.00;94978.56;5096837;28;20192;-59
2022/04/19 00:08:27;;;;;;;4.27;2.47;;;;;;;8.74;79.53;94973.94;5114602;28;20245;-58
2022/04/19 00:10:52;;;;;;;2.97;2.50;;;;;;;8.70;80.33;94979.41;5096366;28;20267;-58
2022/04/19 00:13:18;;;;;;;3.67;2.40;;;;;;;8.69;79.44;94969.69;5097223;28;20279;-57
2022/04/19 00:15:44;;;;;;;3.33;2.80;;;;;;;8.70;80.75;94967.72;5096508;28;20184;-58
2022/04/19 00:18:10;;;;;;;3.07;2.30;;;;;;;8.68;80.45;94965.44;5096440;28;20184;-58
2022/04/19 00:20:38;;;;;;;5.73;2.80;;;;;;;8.63;80.27;94963.13;5096261;28;20595;-59
2022/04/19 00:23:05;;;;;;;2.83;2.33;;;;;;;8.60;80.10;94958.47;5096194;28;20257;-54
2022/04/19 00:25:31;;;;;;;3.73;2.60;;;;;;;8.64;80.32;94953.78;5096290;28;20206;-53
2022/04/19 00:27:56;;;;;;;10.83;7.23;;;;;;;8.54;80.62;94965.53;5095925;28;20191;-54
2022/04/19 00:30:21;;;;;;;4.17;2.40;;;;;;;8.57;80.88;94953.06;5096150;28;20212;-54
2022/04/19 00:32:47;;;;;;;3.60;2.40;;;;;;;8.49;80.62;94949.63;5096047;28;20191;-54
2022/04/19 00:35:12;;;;;;;3.30;2.37;;;;;;;8.52;80.67;94946.09;5096132;28;20195;-54
2022/04/19 00:37:39;;;;;;;2.97;2.37;;;;;;;8.51;80.84;94933.69;5096252;28;20280;-54
2022/04/19 00:40:06;;;;;;;3.03;2.23;;;;;;;8.46;81.32;94934.13;5096213;28;20191;-54
2022/04/19 00:42:32;;;;;;;3.53;2.60;;;;;;;8.47;81.88;94927.50;5114393;28;20180;-57
2022/04/19 00:44:59;;;;;;;3.03;2.73;;;;;;;8.48;81.81;94920.09;5096422;28;20192;-57
2022/04/19 00:47:25;;;;;;;4.37;2.50;;;;;;;8.40;82.21;94924.81;5095746;28;20192;-58
2022/04/19 00:49:52;;;;;;;3.97;2.47;;;;;;;8.36;82.87;94910.47;5095857;28;20211;-57
2022/04/19 00:52:18;;;;;;;3.50;2.90;;;;;;;8.29;82.56;94915.97;5095899;28;20191;-57
2022/04/19 00:54:44;;;;;;;4.63;2.80;;;;;;;8.30;83.38;94917.50;5095704;28;20230;-58
2022/04/19 00:57:10;;;;;;;2.80;2.30;;;;;;;8.26;83.01;94915.97;5095747;28;20211;-58
2022/04/19 00:59:36;;;;;;;4.90;2.40;;;;;;;8.27;83.64;94907.44;5096068;28;20219;-58
2022/04/19 01:02:03;;;;;;;3.90;2.30;;;;;;;8.20;84.07;94902.00;5095796;28;20176;-58
2022/04/19 01:04:29;;;;;;;2.73;2.40;;;;;;;8.29;82.79;94894.22;5095955;28;20278;-58
2022/04/19 01:06:56;;;;;;;2.97;2.37;;;;;;;8.25;83.55;94892.69;5096057;28;20191;-58
2022/04/19 01:09:22;;;;;;;2.77;2.20;;;;;;;8.13;84.05;94896.66;5096058;28;20224;-59
2022/04/19 01:14:34;;;;;;;5.10;2.67;;;;;;;8.29;83.27;94896.94;5114201;28;20233;-60
2022/04/19 01:17:00;;;;;;;3.23;2.40;;;;;;;8.31;83.66;94886.41;5095595;28;20184;-59
2022/04/19 01:19:25;;;;;;;3.50;2.70;;;;;;;8.40;82.87;94889.47;5095851;28;20180;-61
2022/04/19 01:21:54;;;;;;;3.13;2.27;;;;;;;8.38;82.66;94889.06;5095610;28;20183;-61
2022/04/19 01:24:20;;;;;;;4.20;2.50;;;;;;;8.38;83.91;94885.59;5095360;28;20188;-61
2022/04/19 01:26:46;;;;;;;3.77;2.33;;;;;;;8.39;83.31;94882.47;5095889;28;20180;-61
2022/04/19 01:29:13;;;;;;;3.40;2.57;;;;;;;8.44;83.07;94882.03;5095381;28;20215;-61
2022/04/19 01:31:40;;;;;;;3.67;2.60;;;;;;;8.39;83.35;94879.75;5095535;28;20207;-61
2022/04/19 01:34:07;;;;;;;5.37;3.20;;;;;;;8.37;83.50;94876.66;5095462;28;20184;-52
2022/04/19 01:36:36;;;;;;;4.07;2.80;;;;;;;8.38;83.78;94875.47;5095406;28;20273;-58
2022/04/19 01:39:04;;;;;;;2.90;2.50;;;;;;;8.30;83.09;94871.28;5095796;28;20283;-57
2022/04/19 01:41:29;;;;;;;4.03;2.50;;;;;;;8.27;83.67;94874.78;5099317;28;20196;-57
2022/04/19 01:43:55;;;;;;;2.80;2.40;;;;;;;8.17;83.90;94875.63;5099502;28;20198;-57
2022/04/19 01:46:20;;;;;;;4.03;2.90;;;;;;;8.21;84.52;94876.41;5098502;28;20267;-57
2022/04/19 01:48:46;;;;;;;3.30;2.47;;;;;;;8.20;84.39;94874.06;5099314;28;20208;-58
2022/04/19 01:51:12;;;;;;;5.13;2.80;;;;;;;8.15;84.53;94872.53;5098737;28;20184;-59
2022/04/19 01:53:37;;;;;;;5.40;2.70;;;;;;;8.09;85.45;94868.69;5098590;28;20199;-58
2022/04/19 01:56:03;;;;;;;3.53;2.30;;;;;;;8.09;85.65;94865.97;5099036;28;20189;-61
2022/04/19 01:58:28;;;;;;;2.50;2.20;;;;;;;8.08;85.50;94860.94;5098903;28;20183;-60
2022/04/19 02:00:53;;;;;;;3.47;2.70;;;;;;;8.09;85.84;94862.50;5099177;28;20184;-61
2022/04/19 02:03:19;;;;;;;3.43;2.70;;;;;;;8.06;85.51;94860.56;5098612;28;20265;-61
2022/04/19 02:05:44;;;;;;;3.50;2.60;;;;;;;8.07;85.81;94859.38;5098679;28;20192;-61
2022/04/19 02:08:09;;;;;;;2.97;2.47;;;;;;;8.06;86.09;94861.34;5098482;28;20195;-61
2022/04/19 02:10:34;;;;;;;5.27;2.57;;;;;;;8.06;85.80;94855.91;5098927;28;20310;-59
2022/04/19 02:13:00;;;;;;;4.17;2.60;;;;;;;8.06;86.32;94861.34;5098733;28;20189;-54
2022/04/19 02:15:25;;;;;;;4.17;2.67;;;;;;;8.02;87.11;94862.53;5098263;28;20275;-54
2022/04/19 02:17:50;;;;;;;3.43;2.67;;;;;;;8.01;87.43;94861.75;5098268;28;20189;-49
2022/04/19 02:20:17;;;;;;;3.00;2.57;;;;;;;7.99;87.38;94855.97;5098274;28;20227;-52
2022/04/19 02:22:44;;;;;;;4.30;2.70;;;;;;;7.97;88.13;94855.56;5098282;28;20256;-52
2022/04/19 02:25:11;;;;;;;3.20;2.90;;;;;;;7.99;87.46;94858.69;5097833;28;20285;-49
2022/04/19 02:27:39;;;;;;;3.17;2.63;;;;;;;7.95;87.88;94855.22;5098097;28;20190;-54
2022/04/19 02:30:06;;;;;;;2.70;2.27;;;;;;;7.99;87.97;94855.16;5097887;28;20208;-54
2022/04/19 02:32:32;;;;;;;3.00;2.70;;;;;;;7.98;87.84;94856.34;5098349;28;20179;-59
2022/04/19 02:34:58;;;;;;;2.80;2.60;;;;;;;7.92;88.53;94853.28;5116020;28;20541;-58
2022/04/19 02:37:23;;;;;;;2.67;2.33;;;;;;;7.97;88.10;94854.81;5098144;28;20181;-60
2022/04/19 02:39:49;;;;;;;3.63;2.90;;;;;;;7.94;88.24;94856.38;5097920;28;20229;-59
2022/04/19 02:42:15;;;;;;;3.43;2.70;;;;;;;7.93;88.97;94856.75;5098004;28;20195;-59
2022/04/19 02:44:41;;;;;;;3.60;2.77;;;;;;;7.95;88.01;94843.56;5097780;28;20215;-61
2022/04/19 02:47:06;;;;;;;3.97;2.60;;;;;;;7.93;88.91;94841.22;5097699;28;20187;-62
2022/04/19 02:49:33;;;;;;;3.13;2.73;;;;;;;7.90;88.28;94844.75;5098176;28;20199;-55
2022/04/19 02:51:59;;;;;;;4.07;2.70;;;;;;;7.89;87.78;94843.22;5097193;28;20179;-55
2022/04/19 02:54:24;;;;;;;4.43;2.70;;;;;;;7.91;87.86;94840.09;5097574;28;20183;-55
2022/04/19 02:56:50;;;;;;;4.77;2.80;;;;;;;7.91;87.59;94840.88;5097649;28;20279;-53
2022/04/19 02:59:15;;;;;;;3.33;2.70;;;;;;;7.93;88.04;94833.06;5097892;28;20194;-54
2022/04/19 03:01:42;;;;;;;3.27;2.53;;;;;;;7.95;88.05;94832.69;5097758;28;20183;-52
2022/04/19 03:04:07;;;;;;;4.13;2.50;;;;;;;8.07;86.73;94832.97;5097382;28;20185;-52
2022/04/19 03:06:32;;;;;;;2.97;2.30;;;;;;;8.06;86.53;94828.72;5097924;28;20187;-56
2022/04/19 03:08:58;;;;;;;3.80;2.50;;;;;;;8.04;87.46;94836.50;5097481;28;20199;-60
2022/04/19 03:11:23;;;;;;;2.97;2.37;;;;;;;8.09;86.92;94830.63;5097962;28;20194;-59
2022/04/19 03:13:48;;;;;;;3.30;2.30;;;;;;;8.14;86.13;94832.91;5097804;28;20194;-60
2022/04/19 03:16:14;;;;;;;3.13;2.60;;;;;;;8.15;85.54;94825.50;5097261;28;20188;-60
2022/04/19 03:18:43;;;;;;;2.40;2.20;;;;;;;8.20;85.74;94825.84;5115299;28;20180;-57
2022/04/19 03:21:13;;;;;;;5.03;2.70;;;;;;;8.29;85.83;94818.06;5097386;28;20187;-59
2022/04/19 03:29:07;;;;;;;4.77;3.00;;;;;;;8.37;83.75;94818.75;5115524;28;20380;-63
2022/04/19 03:31:33;;;;;;;3.07;2.40;;;;;;;8.53;83.48;94814.31;5097166;28;20192;-63
2022/04/19 03:33:59;;;;;;;2.70;2.20;;;;;;;8.48;83.83;94820.19;5097544;28;20195;-63
2022/04/19 03:36:24;;;;;;;2.50;2.30;;;;;;;8.62;83.11;94824.72;5097782;28;20196;-63
2022/04/19 03:38:50;;;;;;;2.67;2.47;;;;;;;8.64;82.46;94819.66;5097485;28;20180;-63
2022/04/19 03:41:15;;;;;;;2.70;2.10;;;;;;;8.59;81.94;94823.59;5097361;28;20270;-57
2022/04/19 03:43:41;;;;;;;3.70;2.80;;;;;;;8.61;82.28;94826.69;5097296;28;20190;-59
2022/04/19 03:46:08;;;;;;;5.50;3.93;;;;;;;8.64;82.34;94822.38;5097007;28;20194;-60
2022/04/19 03:48:34;;;;;;;4.80;3.27;;;;;;;8.63;82.40;94816.16;5096716;28;20217;-59
2022/04/19 03:50:59;;;;;;;4.43;2.30;;;;;;;8.55;82.71;94822.06;5096639;28;20181;-60
2022/04/19 03:53:25;;;;;;;5.83;2.60;;;;;;;8.39;82.70;94821.84;5096656;28;20189;-60
2022/04/19 03:55:50;;;;;;;3.60;2.67;;;;;;;8.43;83.95;94826.09;5097278;28;20290;-60
2022/04/19 03:58:15;;;;;;;3.53;2.40;;;;;;;8.51;83.33;94824.84;5096691;28;20184;-59
2022/04/19 04:00:40;;;;;;;2.77;2.40;;;;;;;8.60;83.19;94825.13;5096427;28;20562;-62
2022/04/19 04:03:06;;;;;;;3.33;2.60;;;;;;;8.63;83.59;94821.59;5095762;28;20191;-60
2022/04/19 04:05:32;;;;;;;3.40;2.40;;;;;;;8.61;83.04;94823.97;5097138;28;20275;-60
2022/04/19 04:07:58;;;;;;;5.10;4.10;;;;;;;8.58;83.57;94824.78;5096641;28;20279;-60
2022/04/19 04:10:24;;;;;;;3.27;2.70;;;;;;;8.51;83.55;94819.41;5096426;28;20204;-60
2022/04/19 04:12:49;;;;;;;5.33;3.40;;;;;;;8.52;84.47;94815.50;5096517;28;20192;-60
2022/04/19 04:15:15;;;;;;;5.80;3.50;;;;;;;8.49;84.69;94829.16;5096476;28;20279;-60
2022/04/19 04:17:40;;;;;;;2.70;2.27;;;;;;;8.49;83.42;94816.28;5096474;28;20207;-60
2022/04/19 04:20:06;;;;;;;3.30;2.77;;;;;;;8.45;84.36;94822.97;5096328;28;20189;-53
2022/04/19 04:22:32;;;;;;;3.67;2.50;;;;;;;8.40;84.36;94818.72;5096071;28;20188;-58
2022/04/19 04:24:57;;;;;;;3.60;2.80;;;;;;;8.44;83.77;94822.19;5096098;28;20253;-61
2022/04/19 04:27:22;;;;;;;3.50;2.30;;;;;;;8.44;84.08;94819.47;5096328;28;20235;-62
2022/04/19 04:29:48;;;;;;;3.50;2.50;;;;;;;8.45;83.47;94821.00;5096580;28;20196;-61
2022/04/19 04:32:13;;;;;;;3.23;2.20;;;;;;;8.30;84.31;94819.59;5096098;28;20181;-59
2022/04/19 04:34:39;;;;;;;4.20;2.27;;;;;;;8.34;84.38;94823.03;5096216;28;20185;-60
2022/04/19 04:37:04;;;;;;;3.43;2.20;;;;;;;8.44;83.05;94819.47;5095901;28;20186;-60
2022/04/19 04:39:29;;;;;;;2.70;2.30;;;;;;;8.46;83.48;94824.50;5096282;28;20188;-59
2022/04/19 04:41:55;;;;;;;3.03;2.23;;;;;;;8.50;83.27;94826.03;5096052;28;20190;-64
2022/04/19 04:44:20;;;;;;;2.47;2.27;;;;;;;8.64;82.87;94814.97;5095886;28;20330;-67
2022/04/19 04:49:35;;;;;;;2.80;2.30;;;;;;;9.00;82.02;94818.84;5114563;28;20211;-62
2022/04/19 04:52:01;;;;;;;8.43;2.23;;;;;;;9.46;79.98;94819.06;5095769;28;20215;-60
2022/04/19 04:54:26;;;;;;;3.63;2.23;;;;;;;9.86;77.50;94820.84;5095754;28;20217;-61
2022/04/19 04:56:52;;;;;;;2.83;2.30;;;;;;;10.29;76.09;94812.00;5095871;28;20230;-62
2022/04/19 04:59:17;;;;;;;5.77;2.40;;;;;;;10.52;74.31;94820.22;5114021;28;20213;-54
2022/04/19 05:01:43;;;;;;;13.43;8.47;;;;;;;10.72;74.86;94815.53;5095873;28;20198;-59
2022/04/19 05:04:08;;;;;;;6.53;4.50;;;;;;;10.78;74.47;94816.59;5095689;28;20197;-58
2022/04/19 05:06:34;;;;;;;5.43;2.33;;;;;;;10.90;73.59;94816.75;5095654;28;20190;-58
2022/04/19 05:08:59;;;;;;;4.50;2.70;;;;;;;10.81;73.49;94813.81;5095525;28;20211;-57
2022/04/19 05:11:24;;;;;;;4.77;2.67;;;;;;;11.03;72.03;94808.72;5096052;28;20186;-57
2022/04/19 05:13:50;;;;;;;3.13;2.60;;;;;;;11.42;71.10;94801.25;5095566;28;20191;-60
2022/04/19 05:16:15;;;;;;;5.13;3.00;;;;;;;11.81;68.52;94814.91;5099211;28;20187;-59
2022/04/19 05:18:40;;;;;;;6.70;4.63;;;;;;;12.72;64.58;94811.91;5099209;28;20195;-60
2022/04/19 05:21:07;;;;;;;5.23;3.90;;;;;;;13.61;62.02;94811.78;5117116;28;20187;-62
2022/04/19 05:23:33;;;;;;;3.87;2.80;;;;;;;13.96;57.50;94805.25;5099239;28;20226;-60
2022/04/19 05:25:58;;;;;;;4.67;2.80;;;;;;;14.51;56.23;94806.66;5099162;28;20236;-60
2022/04/19 05:28:23;;;;;;;3.23;2.93;;;;;;;15.07;53.13;94805.50;5099282;28;20191;-61
2022/04/19 05:30:49;;;;;;;4.37;2.40;;;;;;;15.19;51.63;94803.94;5098853;28;20218;-60
2022/04/19 05:33:14;;;;;;;3.57;2.30;;;;;;;15.49;50.68;94804.03;5099519;28;20186;-61
2022/04/19 05:35:40;;;;;;;4.60;2.80;;;;;;;15.86;48.86;94805.78;5098909;28;20194;-59
2022/04/19 05:38:05;;;;;;;4.77;3.60;;;;;;;15.99;48.74;94806.44;5098724;28;20199;-60
2022/04/19 05:40:30;;;;;;;3.60;2.40;;;;;;;16.44;47.53;94811.41;5098748;28;20227;-58
2022/04/19 05:42:56;;;;;;;3.93;2.70;;;;;;;16.76;45.63;94807.34;5099102;28;20208;-59
2022/04/19 05:45:21;;;;;;;2.43;2.10;;;;;;;17.41;44.72;94794.66;5098723;28;20184;-58
2022/04/19 05:47:46;;;;;;;5.60;2.50;;;;;;;17.35;46.37;94804.78;5098826;28;20183;-59
2022/04/19 05:50:12;;;;;;;5.80;3.10;;;;;;;17.95;44.60;94811.16;5098510;28;20210;-63
2022/04/19 05:52:37;;;;;;;4.70;3.00;;;;;;;18.41;41.34;94809.78;5098501;28;20187;-59
2022/04/19 05:55:04;;;;;;;2.73;2.40;;;;;;;18.39;41.04;94812.25;5098709;28;20186;-59
2022/04/19 05:57:30;;;;;;;5.57;3.33;;;;;;;18.21;40.80;94820.59;5098299;28;20191;-59
2022/04/19 05:59:55;;;;;;;3.53;2.40;;;;;;;17.94;41.32;94803.31;5098837;28;20188;-59
2022/04/19 06:05:05;;;;;;;3.70;2.07;;;;;;;16.86;43.07;94812.41;5116787;28;20199;-59
2022/04/19 06:07:30;;;;;;;9.10;5.90;;;;;;;16.44;43.82;94814.16;5098305;28;20184;-58
2022/04/19 06:09:57;;;;;;;4.47;2.70;;;;;;;15.92;45.31;94820.47;5116457;28;20204;-59
2022/04/19 06:12:22;;;;;;;4.40;2.70;;;;;;;15.65;47.11;94823.09;5098590;28;20207;-57
2022/04/19 06:14:48;;;;;;;7.73;3.80;;;;;;;15.78;46.58;94823.75;5115945;28;20237;-58
2022/04/19 06:17:15;;;;;;;5.63;2.87;;;;;;;15.55;47.81;94823.50;5098363;28;20191;-58
2022/04/19 06:19:41;;;;;;;4.93;3.43;;;;;;;15.30;48.18;94823.59;5098358;28;20188;-57
2022/04/19 06:22:07;;;;;;;4.93;3.40;;;;;;;15.44;48.08;94817.59;5098197;28;20188;-58
2022/04/19 06:24:32;;;;;;;4.43;2.63;;;;;;;15.37;47.66;94813.09;5097857;28;20200;-58
2022/04/19 06:26:57;;;;;;;3.93;2.90;;;;;;;15.70;47.83;94807.97;5097647;28;20259;-59
2022/04/19 06:29:23;;;;;;;3.30;3.00;;;;;;;15.74;47.59;94808.63;5098033;28;20211;-60
2022/04/19 06:31:48;;;;;;;3.87;2.80;;;;;;;15.62;47.53;94812.97;5098087;28;20191;-59
2022/04/19 06:34:14;;;;;;;5.00;3.20;;;;;;;15.74;46.97;94803.88;5097801;28;20212;-59
2022/04/19 06:36:40;;;;;;;6.57;3.90;;;;;;;15.74;47.20;94806.63;5097759;28;20244;-59
2022/04/19 06:39:05;;;;;;;5.27;2.60;;;;;;;15.49;47.89;94811.53;5097714;28;20191;-59
2022/04/19 06:41:30;;;;;;;2.53;2.33;;;;;;;15.47;48.11;94811.97;5097989;28;20187;-60
2022/04/19 06:44:08;;;;;;;3.73;3.23;;;;;;;15.43;47.88;94816.84;5097498;28;20270;-60
2022/04/19 06:46:34;;;;;;;7.17;5.67;;;;;;;15.36;47.50;94817.09;5098093;28;20180;-59
2022/04/19 06:48:59;;;;;;;7.60;4.33;;;;;;;15.41;47.57;94813.75;5097532;28;20295;-59
2022/04/19 06:51:29;;;;;;;6.13;4.47;;;;;;;15.40;47.83;94817.72;5097752;28;20277;-61
2022/04/19 06:53:55;;;;;;;6.97;3.30;;;;;;;15.64;47.27;94810.56;5098148;28;20178;-59
2022/04/19 06:56:20;;;;;;;5.60;3.70;;;;;;;15.93;47.56;94815.75;5097665;28;20195;-58
2022/04/19 06:58:45;;;;;;;6.10;3.30;;;;;;;15.93;46.41;94805.50;5097490;28;20184;-59
2022/04/19 07:01:11;;;;;;;3.47;3.10;;;;;;;16.06;46.58;94803.41;5097573;28;20218;-59
2022/04/19 07:03:37;;;;;;;7.53;3.40;;;;;;;16.65;45.45;94804.25;5097447;28;20194;-59
2022/04/19 07:06:03;;;;;;;5.23;3.20;;;;;;;16.93;45.04;94809.34;5097449;28;20191;-61
2022/04/19 07:08:29;;;;;;;7.00;3.23;;;;;;;17.28;44.76;94815.34;5097217;28;20183;-59
2022/04/19 07:10:56;;;;;;;13.47;10.70;;;;;;;17.92;42.84;94812.06;5097389;28;20207;-59
2022/04/19 07:13:22;;;;;;;7.73;6.10;;;;;;;17.84;42.64;94804.56;5097353;28;20247;-59
2022/04/19 07:15:47;;;;;;;5.00;3.50;;;;;;;17.73;42.92;94809.81;5096877;28;20381;-59
2022/04/19 07:18:13;;;;;;;5.80;3.50;;;;;;;17.81;42.74;94809.03;5097626;28;20219;-59
2022/04/19 07:28:50;;;;;;;7.40;4.43;;;;;;;17.46;42.80;94807.09;5115222;28;20195;-59
2022/04/19 07:31:15;;;;;;;6.40;3.50;;;;;;;17.57;42.62;94807.38;5096956;28;20176;-58
2022/04/19 07:33:41;;;;;;;6.27;3.97;;;;;;;17.49;42.17;94806.19;5097494;28;20198;-58
2022/04/19 07:36:07;;;;;;;8.17;6.73;;;;;;;17.45;42.48;94805.56;5097055;28;20186;-59
2022/04/19 07:38:32;;;;;;;7.53;4.33;;;;;;;17.27;42.53;94809.09;5096797;28;20566;-60
2022/04/19 07:40:58;;;;;;;6.30;5.00;;;;;;;17.27;42.90;94805.53;5096823;28;20659;-59
2022/04/19 07:43:23;;;;;;;8.77;4.80;;;;;;;17.33;42.72;94800.97;5096707;28;20191;-59
2022/04/19 07:45:49;;;;;;;7.87;5.20;;;;;;;17.44;42.87;94799.28;5097071;28;20183;-60
2022/04/19 07:48:15;;;;;;;5.23;3.63;;;;;;;17.48;42.73;94804.66;5096826;28;20595;-59
2022/04/19 07:50:42;;;;;;;9.10;5.00;;;;;;;17.87;42.53;94798.13;5096556;28;20195;-59
2022/04/19 07:53:08;;;;;;;6.30;3.80;;;;;;;17.95;41.90;94804.88;5096722;28;20198;-60
2022/04/19 07:55:34;;;;;;;14.13;9.60;;;;;;;18.47;41.22;94798.88;5096837;28;20180;-59
2022/04/19 07:57:59;;;;;;;6.50;5.47;;;;;;;18.50;41.07;94797.94;5097080;28;20226;-59
2022/04/19 08:00:27;;;;;;;4.73;3.90;;;;;;;18.62;40.72;94803.22;5097160;28;20180;-62
2022/04/19 08:02:55;;;;;;;5.93;4.10;;;;;;;18.44;41.30;94799.78;5096435;28;20188;-62
2022/04/19 08:05:21;;;;;;;6.77;3.77;;;;;;;18.68;40.74;94795.03;5096670;28;20191;-61
2022/04/19 08:07:48;;;;;;;5.63;4.00;;;;;;;18.57;41.03;94795.56;5096719;28;20186;-62
2022/04/19 08:10:14;;;;;;;5.80;3.77;;;;;;;18.99;40.44;94792.72;5096890;28;20204;-61
2022/04/19 08:12:39;;;;;;;5.37;4.10;;;;;;;19.47;39.31;94783.13;5096627;28;20192;-61
2022/04/19 08:15:05;;;;;;;5.00;4.40;;;;;;;20.04;38.39;94787.16;5096918;28;21053;-61
2022/04/19 08:17:34;;;;;;;20.53;15.03;;;;;;;20.34;37.31;94785.91;5096828;28;20184;-59
2022/04/19 08:20:01;;;;;;;6.63;4.47;;;;;;;20.83;37.15;94776.78;5096130;28;20275;-58
2022/04/19 08:22:27;;;;;;;6.53;4.50;;;;;;;20.17;36.42;94784.88;5096294;28;20233;-59
2022/04/19 08:24:53;;;;;;;7.80;5.40;;;;;;;20.06;37.83;94779.13;5095960;28;20612;-59
2022/04/19 08:27:19;;;;;;;7.00;4.60;;;;;;;19.84;37.77;94784.28;5096243;28;20188;-59
2022/04/19 08:29:45;;;;;;;6.37;4.40;;;;;;;19.94;37.10;94782.97;5096102;28;20211;-58
2022/04/19 08:32:10;;;;;;;8.47;4.63;;;;;;;19.71;37.26;94781.06;5096113;28;20183;-59
2022/04/19 08:34:36;;;;;;;4.93;4.03;;;;;;;19.87;37.58;94777.78;5096120;28;20192;-59
2022/04/19 08:37:02;;;;;;;5.47;4.23;;;;;;;19.91;38.01;94775.59;5096371;28;20180;-58
2022/04/19 08:39:28;;;;;;;6.77;4.97;;;;;;;19.44;37.71;94781.28;5095948;28;20663;-59
2022/04/19 08:41:53;;;;;;;4.63;4.17;;;;;;;19.34;38.21;94774.31;5095876;28;20241;-59
2022/04/19 08:44:19;;;;;;;7.80;4.47;;;;;;;19.12;38.07;94776.59;5096326;28;20182;-59
2022/04/19 08:46:45;;;;;;;6.60;4.73;;;;;;;19.36;37.87;94771.81;5096093;28;20179;-59
2022/04/19 08:49:11;;;;;;;6.87;4.80;;;;;;;19.60;37.70;94780.84;5096356;28;20270;-59
2022/04/19 08:51:39;;;;;;;6.97;4.50;;;;;;;20.26;36.64;94773.69;5099781;28;20224;-59
2022/04/19 08:59:33;;;;;;;7.90;4.70;;;;;;;22.85;32.58;94770.22;5118080;28;20239;-61
2022/04/19 09:01:59;;;;;;;6.27;4.40;;;;;;;23.06;32.58;94763.25;5099499;28;20191;-60
2022/04/19 09:04:25;;;;;;;7.07;5.07;;;;;;;22.56;32.49;94773.31;5098973;28;20211;-60
2022/04/19 09:06:57;;;;;;;5.60;4.90;;;;;;;21.99;33.64;94771.34;5098990;28;20188;-60
2022/04/19 09:09:25;;;;;;;8.97;6.50;;;;;;;21.25;34.21;94769.53;5099739;28;20212;-59
2022/04/19 09:11:51;;;;;;;11.80;8.40;;;;;;;21.11;35.52;94770.38;5116959;28;20233;-58
2022/04/19 09:14:17;;;;;;;7.10;5.87;;;;;;;20.72;35.21;94769.06;5099392;28;20187;-60
2022/04/19 09:16:46;;;;;;;32.07;22.80;;;;;;;20.55;35.71;94770.06;5099446;28;20183;-60
2022/04/19 09:19:28;;;;;;;8.23;5.50;;;;;;;19.99;35.17;94768.41;5099189;28;20192;-61
2022/04/19 09:21:54;;;;;;;5.53;4.93;;;;;;;20.05;35.79;94760.97;5099066;28;20180;-60
2022/04/19 09:24:21;;;;;;;8.33;5.57;;;;;;;19.87;36.33;94768.72;5099251;28;20213;-60
2022/04/19 09:26:50;;;;;;;7.50;5.40;;;;;;;20.06;36.42;94768.03;5098885;28;20641;-60
2022/04/19 09:29:23;;;;;;;7.47;5.30;;;;;;;19.20;37.00;94772.25;5099035;28;20210;-60
2022/04/19 09:31:52;;;;;;;6.63;5.80;;;;;;;19.00;37.73;94772.09;5099423;28;20551;-59
2022/04/19 09:34:28;;;;;;;7.33;6.10;;;;;;;19.32;37.23;94771.25;5098984;28;20184;-60
2022/04/19 09:37:08;;;;;;;8.00;5.97;;;;;;;19.16;37.76;94768.91;5099256;28;20197;-61
2022/04/19 09:39:37;;;;;;;9.40;6.10;;;;;;;18.90;38.17;94767.84;5099125;28;20179;-61
2022/04/19 09:42:07;;;;;;;7.23;5.67;;;;;;;19.35;37.67;94759.22;5098641;28;20199;-59
2022/04/19 09:44:37;;;;;;;8.97;6.07;;;;;;;19.65;37.32;94760.78;5098763;28;20203;-60
2022/04/19 09:47:08;;;;;;;7.60;5.80;;;;;;;19.83;37.39;94759.81;5098826;28;20233;-60
2022/04/19 09:49:47;;;;;;;7.83;6.30;;;;;;;19.38;37.59;94761.78;5098428;28;20215;-57
2022/04/19 09:52:34;;;;;;;7.30;5.47;;;;;;;19.41;37.36;94752.53;5098281;28;20186;-58
2022/04/19 09:55:05;;;;;;;11.73;6.10;;;;;;;18.97;37.76;94748.88;5098246;28;20220;-58
2022/04/19 09:57:41;;;;;;;6.23;5.40;;;;;;;18.76;37.99;94755.50;5098623;28;20183;-57
2022/04/19 10:00:07;;;;;;;8.93;6.10;;;;;;;18.68;38.03;94764.59;5098050;28;20188;-56
2022/04/19 10:08:18;;;;;;;7.07;5.33;;;;;;;19.48;36.85;94751.41;5116990;28;20244;-59
2022/04/19 10:10:45;;;;;;;8.80;6.00;;;;;;;19.53;36.73;94750.75;5098805;28;20234;-62
2022/04/19 10:13:10;;;;;;;7.07;5.57;;;;;;;19.96;36.35;94741.66;5098725;28;20195;-62
2022/04/19 10:15:37;;;;;;;7.10;5.87;;;;;;;20.11;35.70;94736.13;5098418;28;20184;-61
2022/04/19 10:18:06;;;;;;;6.80;6.07;;;;;;;19.85;36.65;94738.69;5098414;28;20189;-60
2022/04/19 10:20:34;;;;;;;7.30;6.03;;;;;;;20.22;36.54;94739.06;5098142;28;20187;-60
2022/04/19 10:23:02;;;;;;;8.90;6.57;;;;;;;20.15;36.38;94743.00;5098195;28;20190;-61
2022/04/19 10:25:40;;;;;;;8.90;6.40;;;;;;;20.42;35.70;94734.34;5098031;28;20196;-58
2022/04/19 10:28:08;;;;;;;8.53;6.57;;;;;;;20.85;35.46;94733.41;5098530;28;20180;-59
2022/04/19 10:30:36;;;;;;;8.20;6.57;;;;;;;21.03;34.76;94724.84;5098250;28;20199;-58
2022/04/19 10:33:01;;;;;;;7.13;6.03;;;;;;;20.39;35.52;94729.75;5098182;28;20216;-57
2022/04/19 10:35:27;;;;;;;10.73;6.63;;;;;;;20.93;35.05;94717.88;5098171;28;20207;-58
2022/04/19 10:38:20;;;;;;;7.63;6.00;;;;;;;20.63;35.01;94726.78;5097939;28;20188;-57
2022/04/19 10:40:51;;;;;;;7.77;5.80;;;;;;;20.99;34.13;94710.41;5097911;28;20637;-57
2022/04/19 10:43:17;;;;;;;7.80;5.87;;;;;;;20.45;35.63;94715.94;5097749;28;20627;-57
2022/04/19 10:45:46;;;;;;;8.83;5.83;;;;;;;22.05;34.32;94716.53;5097957;28;20217;-58
2022/04/19 10:48:14;;;;;;;7.27;5.77;;;;;;;22.62;32.88;94707.31;5115516;28;20180;-61
2022/04/19 10:50:40;;;;;;;9.50;7.63;;;;;;;22.30;32.51;94710.13;5098141;28;20204;-61
2022/04/19 10:53:10;;;;;;;8.23;6.03;;;;;;;21.32;33.90;94705.22;5097607;28;20264;-61
2022/04/19 10:55:58;;;;;;;9.33;7.17;;;;;;;21.33;33.93;94703.94;5098076;28;20184;-61
2022/04/19 10:58:44;;;;;;;7.77;6.67;;;;;;;20.43;35.10;94702.56;5097375;28;20184;-60
2022/04/19 11:01:30;;;;;;;8.73;7.17;;;;;;;20.55;35.26;94692.38;5097708;28;20192;-60
2022/04/19 11:03:56;;;;;;;7.83;6.57;;;;;;;20.73;34.87;94697.66;5097567;28;20210;-59
2022/04/19 11:06:31;;;;;;;7.37;6.60;;;;;;;20.56;34.75;94694.69;5097816;28;20188;-57
2022/04/19 11:09:07;;;;;;;8.53;6.77;;;;;;;20.43;35.21;94691.47;5097160;28;20556;-56
2022/04/19 11:11:46;;;;;;;7.43;6.03;;;;;;;19.96;35.34;94691.75;5097562;28;20236;-57
2022/04/19 11:14:20;;;;;;;7.87;5.97;;;;;;;20.15;35.55;94698.63;5097249;28;20252;-57
2022/04/19 11:16:51;;;;;;;9.00;6.50;;;;;;;19.60;36.35;94697.72;5097640;28;20176;-57
2022/04/19 11:19:24;;;;;;;9.87;6.90;;;;;;;19.60;36.17;94697.72;5097316;28;20179;-56
2022/04/19 11:21:59;;;;;;;12.67;10.13;;;;;;;20.36;35.29;94691.88;5097149;28;20270;-56
2022/04/19 11:25:02;;;;;;;8.47;6.37;;;;;;;20.50;35.53;94685.50;5097305;28;20187;-59
2022/04/19 11:27:52;;;;;;;8.83;5.83;;;;;;;21.49;34.14;94675.56;5097417;28;20184;-59
2022/04/19 11:30:18;;;;;;;9.00;5.90;;;;;;;21.57;33.51;94675.88;5096937;28;20542;-59
2022/04/19 11:32:49;;;;;;;6.37;5.77;;;;;;;21.14;34.18;94672.19;5096994;28;20240;-59
2022/04/19 11:35:17;;;;;;;9.90;6.20;;;;;;;20.99;33.91;94677.06;5097068;28;20187;-59
2022/04/19 11:37:44;;;;;;;7.03;5.77;;;;;;;21.04;33.92;94668.03;5097592;28;20282;-59
2022/04/19 11:48:45;;;;;;;7.40;6.70;;;;;;;20.14;34.18;94663.81;5115643;28;20185;-62
2022/04/19 11:51:12;;;;;;;9.40;6.20;;;;;;;20.72;34.79;94663.59;5097063;28;20605;-60
2022/04/19 11:53:38;;;;;;;7.80;5.70;;;;;;;21.51;34.25;94648.03;5096888;28;20266;-61
2022/04/19 11:56:04;;;;;;;6.47;5.73;;;;;;;22.06;33.16;94653.28;5096699;28;20222;-61
2022/04/19 11:58:31;;;;;;;6.23;5.63;;;;;;;22.31;32.84;94644.88;5097217;28;20187;-60
2022/04/19 12:01:01;;;;;;;6.17;5.50;;;;;;;22.28;32.90;94648.66;5096570;28;20279;-62
2022/04/19 12:03:32;;;;;;;6.33;5.60;;;;;;;22.03;33.03;94652.28;5096760;28;20188;-61
2022/04/19 12:06:24;;;;;;;6.20;5.60;;;;;;;22.42;32.73;94636.59;5097131;28;20192;-61
2022/04/19 12:08:53;;;;;;;7.00;5.87;;;;;;;22.26;32.56;94637.22;5091742;28;20735;-60
2022/04/19 12:11:26;;;;;;;6.07;5.47;;;;;;;21.79;33.08;94642.75;5096247;28;20236;-61
2022/04/19 12:13:52;;;;;;;7.00;6.17;;;;;;;21.94;32.83;94627.44;5096699;28;20179;-61
2022/04/19 12:16:39;;;;;;;7.33;6.13;;;;;;;21.10;33.66;94637.53;5096760;28;20178;-62
2022/04/19 12:19:13;;;;;;;6.27;5.67;;;;;;;20.87;34.03;94644.84;5096593;28;20184;-61